sensor_id;sensor_type;location;lat;lon;timestamp;pressure;altitude;pressure_sealevel;temperature;humidity
35443;BME280;21561;55.654;37.592;2023-03-11T00:00:28;98830.16;;;-5.38;68.03
35443;BME280;21561;55.654;37.592;2023-03-11T00:02:56;98826.91;;;-5.35;67.98
35443;BME280;21561;55.654;37.592;2023-03-11T00:05:30;98828.88;;;-5.28;67.90
35443;BME280;21561;55.654;37.592;2023-03-11T00:07:57;98840.53;;;-5.32;68.08
35443;BME280;21561;55.654;37.592;2023-03-11T00:10:30;98827.16;;;-5.29;67.72
35443;BME280;21561;55.654;37.592;2023-03-11T00:12:58;98810.19;;;-5.32;67.10
35443;BME280;21561;55.654;37.592;2023-03-11T00:15:27;98812.72;;;-5.32;67.69
35443;BME280;21561;55.654;37.592;2023-03-11T00:17:54;98808.50;;;-5.31;67.25
35443;BME280;21561;55.654;37.592;2023-03-11T00:20:27;98806.06;;;-5.30;67.22
35443;BME280;21561;55.654;37.592;2023-03-11T00:22:55;98802.47;;;-5.35;67.49
35443;BME280;21561;55.654;37.592;2023-03-11T00:25:25;98804.88;;;-5.38;67.02
35443;BME280;21561;55.654;37.592;2023-03-11T00:27:52;98811.34;;;-5.45;67.53
35443;BME280;21561;55.654;37.592;2023-03-11T00:30:19;98815.53;;;-5.45;67.52
35443;BME280;21561;55.654;37.592;2023-03-11T00:32:51;98808.88;;;-5.43;67.83
35443;BME280;21561;55.654;37.592;2023-03-11T00:35:22;98824.84;;;-5.44;68.45
35443;BME280;21561;55.654;37.592;2023-03-11T00:37:53;98822.44;;;-5.41;68.11
35443;BME280;21561;55.654;37.592;2023-03-11T00:40:21;98816.47;;;-5.43;68.30
35443;BME280;21561;55.654;37.592;2023-03-11T00:42:48;98813.03;;;-5.44;68.00
35443;BME280;21561;55.654;37.592;2023-03-11T00:45:15;98805.44;;;-5.45;67.92
35443;BME280;21561;55.654;37.592;2023-03-11T00:47:42;98811.34;;;-5.45;68.18
35443;BME280;21561;55.654;37.592;2023-03-11T00:50:15;98813.78;;;-5.46;67.84
35443;BME280;21561;55.654;37.592;2023-03-11T00:52:47;98811.94;;;-5.50;67.64
35443;BME280;21561;55.654;37.592;2023-03-11T00:55:18;98804.97;;;-5.56;67.79
35443;BME280;21561;55.654;37.592;2023-03-11T00:57:45;98815.66;;;-5.62;68.17
35443;BME280;21561;55.654;37.592;2023-03-11T01:00:14;98815.72;;;-5.60;68.30
35443;BME280;21561;55.654;37.592;2023-03-11T01:02:42;98814.72;;;-5.64;67.87
35443;BME280;21561;55.654;37.592;2023-03-11T01:05:09;98818.84;;;-5.66;68.42
35443;BME280;21561;55.654;37.592;2023-03-11T01:07:36;98817.00;;;-5.70;69.12
35443;BME280;21561;55.654;37.592;2023-03-11T01:10:04;98822.81;;;-5.71;68.63
35443;BME280;21561;55.654;37.592;2023-03-11T01:12:31;98810.72;;;-5.78;68.77
35443;BME280;21561;55.654;37.592;2023-03-11T01:14:59;98818.03;;;-5.84;68.89
35443;BME280;21561;55.654;37.592;2023-03-11T01:17:26;98812.78;;;-5.89;68.73
35443;BME280;21561;55.654;37.592;2023-03-11T01:19:53;98822.69;;;-5.93;69.02
35443;BME280;21561;55.654;37.592;2023-03-11T01:22:19;98820.94;;;-5.95;69.39
35443;BME280;21561;55.654;37.592;2023-03-11T01:24:46;98815.78;;;-5.98;69.18
35443;BME280;21561;55.654;37.592;2023-03-11T01:27:13;98812.31;;;-6.00;69.43
35443;BME280;21561;55.654;37.592;2023-03-11T01:29:40;98813.00;;;-6.04;69.74
35443;BME280;21561;55.654;37.592;2023-03-11T01:32:07;98823.88;;;-6.05;70.72
35443;BME280;21561;55.654;37.592;2023-03-11T01:34:33;98822.16;;;-6.06;70.50
35443;BME280;21561;55.654;37.592;2023-03-11T01:37:02;98821.34;;;-6.05;70.53
35443;BME280;21561;55.654;37.592;2023-03-11T01:39:29;98825.69;;;-6.02;70.96
35443;BME280;21561;55.654;37.592;2023-03-11T01:41:56;98806.41;;;-6.00;70.68
35443;BME280;21561;55.654;37.592;2023-03-11T01:44:23;98816.31;;;-6.05;71.03
35443;BME280;21561;55.654;37.592;2023-03-11T01:49:20;98822.09;;;-6.07;71.80
35443;BME280;21561;55.654;37.592;2023-03-11T01:51:50;98819.50;;;-6.09;71.61
35443;BME280;21561;55.654;37.592;2023-03-11T01:54:20;98827.00;;;-6.10;72.62
35443;BME280;21561;55.654;37.592;2023-03-11T01:56:49;98812.72;;;-6.10;72.24
35443;BME280;21561;55.654;37.592;2023-03-11T01:59:20;98812.72;;;-6.10;72.10
35443;BME280;21561;55.654;37.592;2023-03-11T02:01:52;98824.41;;;-6.12;72.61
35443;BME280;21561;55.654;37.592;2023-03-11T02:04:21;98810.56;;;-6.20;72.85
35443;BME280;21561;55.654;37.592;2023-03-11T02:06:48;98820.53;;;-6.23;72.95
35443;BME280;21561;55.654;37.592;2023-03-11T02:09:16;98813.75;;;-6.24;73.37
35443;BME280;21561;55.654;37.592;2023-03-11T02:11:43;98811.09;;;-6.27;73.64
35443;BME280;21561;55.654;37.592;2023-03-11T02:14:10;98818.66;;;-6.27;73.70
35443;BME280;21561;55.654;37.592;2023-03-11T02:16:37;98820.09;;;-6.32;74.01
35443;BME280;21561;55.654;37.592;2023-03-11T02:19:15;98818.50;;;-6.30;73.87
35443;BME280;21561;55.654;37.592;2023-03-11T02:21:44;98817.56;;;-6.32;74.32
35443;BME280;21561;55.654;37.592;2023-03-11T02:27:17;98805.75;;;-6.34;74.86
35443;BME280;21561;55.654;37.592;2023-03-11T02:29:46;98808.25;;;-6.34;74.61
35443;BME280;21561;55.654;37.592;2023-03-11T02:32:15;98799.91;;;-6.32;75.37
35443;BME280;21561;55.654;37.592;2023-03-11T02:34:43;98799.16;;;-6.30;75.79
35443;BME280;21561;55.654;37.592;2023-03-11T02:37:12;98803.66;;;-6.24;76.00
35443;BME280;21561;55.654;37.592;2023-03-11T02:39:45;98801.19;;;-6.23;76.37
35443;BME280;21561;55.654;37.592;2023-03-11T02:45:03;98800.31;;;-6.23;77.80
35443;BME280;21561;55.654;37.592;2023-03-11T02:47:32;98801.78;;;-6.28;78.44
35443;BME280;21561;55.654;37.592;2023-03-11T02:50:00;98807.47;;;-6.32;78.97
35443;BME280;21561;55.654;37.592;2023-03-11T02:52:27;98802.28;;;-6.36;79.69
35443;BME280;21561;55.654;37.592;2023-03-11T02:54:54;98810.66;;;-6.37;80.26
35443;BME280;21561;55.654;37.592;2023-03-11T02:57:21;98801.50;;;-6.35;80.79
35443;BME280;21561;55.654;37.592;2023-03-11T02:59:48;98800.91;;;-6.29;81.47
35443;BME280;21561;55.654;37.592;2023-03-11T03:02:15;98799.41;;;-6.25;81.29
35443;BME280;21561;55.654;37.592;2023-03-11T03:04:42;98799.53;;;-6.22;82.24
35443;BME280;21561;55.654;37.592;2023-03-11T03:07:09;98807.13;;;-6.22;82.28
35443;BME280;21561;55.654;37.592;2023-03-11T03:09:36;98807.13;;;-6.22;82.76
35443;BME280;21561;55.654;37.592;2023-03-11T03:12:03;98808.84;;;-6.21;82.81
35443;BME280;21561;55.654;37.592;2023-03-11T03:14:31;98798.66;;;-6.23;83.35
35443;BME280;21561;55.654;37.592;2023-03-11T03:16:58;98806.13;;;-6.26;83.90
35443;BME280;21561;55.654;37.592;2023-03-11T03:19:25;98805.09;;;-6.29;83.99
35443;BME280;21561;55.654;37.592;2023-03-11T03:21:51;98802.34;;;-6.34;84.71
35443;BME280;21561;55.654;37.592;2023-03-11T03:24:18;98800.41;;;-6.40;85.14
35443;BME280;21561;55.654;37.592;2023-03-11T03:26:45;98802.00;;;-6.42;85.51
35443;BME280;21561;55.654;37.592;2023-03-11T03:29:12;98802.59;;;-6.47;86.08
35443;BME280;21561;55.654;37.592;2023-03-11T03:31:38;98806.47;;;-6.54;86.79
35443;BME280;21561;55.654;37.592;2023-03-11T03:34:05;98804.63;;;-6.58;87.08
35443;BME280;21561;55.654;37.592;2023-03-11T03:36:32;98810.28;;;-6.62;87.99
35443;BME280;21561;55.654;37.592;2023-03-11T03:38:59;98806.84;;;-6.64;88.67
35443;BME280;21561;55.654;37.592;2023-03-11T03:41:27;98802.53;;;-6.67;89.05
35443;BME280;21561;55.654;37.592;2023-03-11T03:43:54;98806.56;;;-6.70;89.48
35443;BME280;21561;55.654;37.592;2023-03-11T03:46:21;98794.72;;;-6.72;90.03
35443;BME280;21561;55.654;37.592;2023-03-11T03:48:48;98798.06;;;-6.73;90.03
35443;BME280;21561;55.654;37.592;2023-03-11T03:51:16;98791.41;;;-6.70;90.07
35443;BME280;21561;55.654;37.592;2023-03-11T03:53:43;98797.25;;;-6.72;90.17
35443;BME280;21561;55.654;37.592;2023-03-11T03:56:14;98791.50;;;-6.69;90.01
35443;BME280;21561;55.654;37.592;2023-03-11T03:58:41;98792.06;;;-6.75;90.29
35443;BME280;21561;55.654;37.592;2023-03-11T04:01:09;98792.78;;;-6.77;90.64
35443;BME280;21561;55.654;37.592;2023-03-11T04:03:37;98789.41;;;-6.78;90.63
35443;BME280;21561;55.654;37.592;2023-03-11T04:06:25;98789.56;;;-6.75;91.33
35443;BME280;21561;55.654;37.592;2023-03-11T04:08:53;98778.28;;;-6.81;91.25
35443;BME280;21561;55.654;37.592;2023-03-11T04:11:21;98785.78;;;-6.83;91.52
35443;BME280;21561;55.654;37.592;2023-03-11T04:13:48;98777.28;;;-6.85;91.79
35443;BME280;21561;55.654;37.592;2023-03-11T04:16:18;98779.00;;;-6.84;91.93
35443;BME280;21561;55.654;37.592;2023-03-11T04:18:46;98775.53;;;-6.86;91.77
35443;BME280;21561;55.654;37.592;2023-03-11T04:21:13;98775.53;;;-6.86;91.58
35443;BME280;21561;55.654;37.592;2023-03-11T04:23:40;98773.03;;;-6.86;91.65
35443;BME280;21561;55.654;37.592;2023-03-11T04:26:06;98756.94;;;-6.88;91.45
35443;BME280;21561;55.654;37.592;2023-03-11T04:28:33;98762.66;;;-6.92;91.39
35443;BME280;21561;55.654;37.592;2023-03-11T04:31:00;98758.38;;;-6.93;91.78
35443;BME280;21561;55.654;37.592;2023-03-11T04:33:27;98750.75;;;-6.95;91.64
35443;BME280;21561;55.654;37.592;2023-03-11T04:35:54;98753.22;;;-6.96;91.69
35443;BME280;21561;55.654;37.592;2023-03-11T04:38:21;98742.97;;;-6.99;92.05
35443;BME280;21561;55.654;37.592;2023-03-11T04:40:48;98741.22;;;-7.00;92.39
35443;BME280;21561;55.654;37.592;2023-03-11T04:43:15;98747.16;;;-7.00;92.46
35443;BME280;21561;55.654;37.592;2023-03-11T04:45:42;98746.44;;;-6.97;92.02
35443;BME280;21561;55.654;37.592;2023-03-11T04:48:09;98744.69;;;-6.98;92.16
35443;BME280;21561;55.654;37.592;2023-03-11T04:50:35;98744.56;;;-7.01;92.09
35443;BME280;21561;55.654;37.592;2023-03-11T04:53:02;98735.25;;;-7.02;92.14
35443;BME280;21561;55.654;37.592;2023-03-11T04:55:29;98739.50;;;-7.01;92.61
35443;BME280;21561;55.654;37.592;2023-03-11T04:57:56;98739.63;;;-6.98;92.28
35443;BME280;21561;55.654;37.592;2023-03-11T05:00:24;98741.53;;;-6.94;92.32
35443;BME280;21561;55.654;37.592;2023-03-11T05:02:51;98740.81;;;-6.92;92.28
35443;BME280;21561;55.654;37.592;2023-03-11T05:05:18;98743.41;;;-6.90;92.38
35443;BME280;21561;55.654;37.592;2023-03-11T05:07:46;98743.56;;;-6.87;92.38
35443;BME280;21561;55.654;37.592;2023-03-11T05:10:14;98735.09;;;-6.87;92.48
35443;BME280;21561;55.654;37.592;2023-03-11T05:12:48;98728.53;;;-6.84;92.49
35443;BME280;21561;55.654;37.592;2023-03-11T05:15:16;98735.34;;;-6.83;92.55
35443;BME280;21561;55.654;37.592;2023-03-11T05:17:43;98721.94;;;-6.82;92.39
35443;BME280;21561;55.654;37.592;2023-03-11T05:20:11;98732.16;;;-6.79;92.42
35443;BME280;21561;55.654;37.592;2023-03-11T05:22:38;98724.59;;;-6.79;92.55
35443;BME280;21561;55.654;37.592;2023-03-11T05:25:05;98732.03;;;-6.82;93.15
35443;BME280;21561;55.654;37.592;2023-03-11T05:27:32;98729.50;;;-6.82;92.85
35443;BME280;21561;55.654;37.592;2023-03-11T05:29:59;98724.38;;;-6.83;93.22
35443;BME280;21561;55.654;37.592;2023-03-11T05:32:26;98724.97;;;-6.89;93.68
35443;BME280;21561;55.654;37.592;2023-03-11T05:34:52;98729.94;;;-6.91;93.66
35443;BME280;21561;55.654;37.592;2023-03-11T05:37:19;98731.56;;;-6.91;94.05
35443;BME280;21561;55.654;37.592;2023-03-11T05:39:46;98721.72;;;-6.86;94.32
35443;BME280;21561;55.654;37.592;2023-03-11T05:42:13;98726.84;;;-6.85;93.88
35443;BME280;21561;55.654;37.592;2023-03-11T05:44:40;98725.41;;;-6.80;93.85
35443;BME280;21561;55.654;37.592;2023-03-11T05:47:07;98728.84;;;-6.78;93.64
35443;BME280;21561;55.654;37.592;2023-03-11T05:49:34;98727.09;;;-6.79;93.53
35443;BME280;21561;55.654;37.592;2023-03-11T05:52:01;98732.03;;;-6.82;93.84
35443;BME280;21561;55.654;37.592;2023-03-11T05:54:28;98732.06;;;-6.80;94.55
35443;BME280;21561;55.654;37.592;2023-03-11T05:56:54;98725.59;;;-6.75;94.91
35443;BME280;21561;55.654;37.592;2023-03-11T05:59:21;98725.81;;;-6.70;94.04
35443;BME280;21561;55.654;37.592;2023-03-11T06:01:48;98719.84;;;-6.73;93.97
35443;BME280;21561;55.654;37.592;2023-03-11T06:04:16;98720.63;;;-6.74;94.42
35443;BME280;21561;55.654;37.592;2023-03-11T06:06:43;98716.38;;;-6.75;93.50
35443;BME280;21561;55.654;37.592;2023-03-11T06:09:11;98724.88;;;-6.73;93.53
35443;BME280;21561;55.654;37.592;2023-03-11T06:11:39;98721.28;;;-6.78;93.56
35443;BME280;21561;55.654;37.592;2023-03-11T06:14:06;98728.53;;;-6.84;93.63
35443;BME280;21561;55.654;37.592;2023-03-11T06:16:32;98722.56;;;-6.86;94.88
35443;BME280;21561;55.654;37.592;2023-03-11T06:18:59;98717.75;;;-6.81;94.46
35443;BME280;21561;55.654;37.592;2023-03-11T06:21:37;98723.22;;;-6.72;93.85
35443;BME280;21561;55.654;37.592;2023-03-11T06:24:04;98713.53;;;-6.63;93.40
35443;BME280;21561;55.654;37.592;2023-03-11T06:26:31;98724.50;;;-6.62;92.95
35443;BME280;21561;55.654;37.592;2023-03-11T06:28:58;98719.31;;;-6.65;93.37
35443;BME280;21561;55.654;37.592;2023-03-11T06:31:26;98713.28;;;-6.69;93.60
35443;BME280;21561;55.654;37.592;2023-03-11T06:33:53;98717.44;;;-6.69;93.38
35443;BME280;21561;55.654;37.592;2023-03-11T06:36:25;98704.03;;;-6.68;93.21
35443;BME280;21561;55.654;37.592;2023-03-11T06:38:53;98707.56;;;-6.65;94.13
35443;BME280;21561;55.654;37.592;2023-03-11T06:41:20;98713.53;;;-6.63;94.00
35443;BME280;21561;55.654;37.592;2023-03-11T06:43:47;98705.19;;;-6.62;94.38
35443;BME280;21561;55.654;37.592;2023-03-11T06:46:17;98705.31;;;-6.59;93.83
35443;BME280;21561;55.654;37.592;2023-03-11T06:48:44;98706.19;;;-6.58;94.33
35443;BME280;21561;55.654;37.592;2023-03-11T06:51:12;98705.25;;;-6.60;94.30
35443;BME280;21561;55.654;37.592;2023-03-11T06:53:39;98707.63;;;-6.63;94.64
35443;BME280;21561;55.654;37.592;2023-03-11T06:56:11;98702.59;;;-6.63;94.95
35443;BME280;21561;55.654;37.592;2023-03-11T06:58:41;98704.59;;;-6.56;94.70
35443;BME280;21561;55.654;37.592;2023-03-11T07:01:16;98696.38;;;-6.52;94.63
35443;BME280;21561;55.654;37.592;2023-03-11T07:03:45;98694.78;;;-6.50;95.15
35443;BME280;21561;55.654;37.592;2023-03-11T07:06:14;98694.47;;;-6.38;94.54
35443;BME280;21561;55.654;37.592;2023-03-11T07:08:42;98692.28;;;-6.30;94.46
35443;BME280;21561;55.654;37.592;2023-03-11T07:11:12;98692.81;;;-6.18;94.55
35443;BME280;21561;55.654;37.592;2023-03-11T07:13:40;98691.22;;;-6.16;93.64
35443;BME280;21561;55.654;37.592;2023-03-11T07:16:11;98684.50;;;-6.16;93.91
35443;BME280;21561;55.654;37.592;2023-03-11T07:18:42;98684.31;;;-6.20;93.37
35443;BME280;21561;55.654;37.592;2023-03-11T07:21:12;98675.91;;;-6.19;94.13
35443;BME280;21561;55.654;37.592;2023-03-11T07:23:41;98680.97;;;-6.19;93.75
35443;BME280;21561;55.654;37.592;2023-03-11T07:26:12;98677.91;;;-6.12;94.07
35443;BME280;21561;55.654;37.592;2023-03-11T07:28:39;98674.84;;;-6.05;93.36
35443;BME280;21561;55.654;37.592;2023-03-11T07:31:12;98671.78;;;-5.98;93.16
35443;BME280;21561;55.654;37.592;2023-03-11T07:33:39;98662.44;;;-6.00;91.99
35443;BME280;21561;55.654;37.592;2023-03-11T07:36:08;98654.00;;;-6.01;92.59
35443;BME280;21561;55.654;37.592;2023-03-11T07:38:36;98654.09;;;-5.98;92.58
35443;BME280;21561;55.654;37.592;2023-03-11T07:41:03;98645.97;;;-5.90;92.71
35443;BME280;21561;55.654;37.592;2023-03-11T07:43:30;98626.81;;;-5.85;92.63
35443;BME280;21561;55.654;37.592;2023-03-11T07:46:05;98631.22;;;-5.81;93.04
35443;BME280;21561;55.654;37.592;2023-03-11T07:48:34;98628.69;;;-5.81;93.31
35443;BME280;21561;55.654;37.592;2023-03-11T07:51:07;98635.56;;;-5.77;93.79
35443;BME280;21561;55.654;37.592;2023-03-11T07:53:35;98617.22;;;-5.73;94.05
35443;BME280;21561;55.654;37.592;2023-03-11T07:56:03;98605.63;;;-5.68;94.17
35443;BME280;21561;55.654;37.592;2023-03-11T07:58:30;98605.50;;;-5.71;94.65
35443;BME280;21561;55.654;37.592;2023-03-11T08:01:02;98604.63;;;-5.71;95.27
35443;BME280;21561;55.654;37.592;2023-03-11T08:03:29;98601.25;;;-5.72;94.93
35443;BME280;21561;55.654;37.592;2023-03-11T08:05:56;98597.84;;;-5.72;94.63
35443;BME280;21561;55.654;37.592;2023-03-11T08:08:23;98593.47;;;-5.77;94.85
35443;BME280;21561;55.654;37.592;2023-03-11T08:10:50;98589.41;;;-5.73;95.54
35443;BME280;21561;55.654;37.592;2023-03-11T08:13:17;98597.25;;;-5.67;95.78
35443;BME280;21561;55.654;37.592;2023-03-11T08:15:44;98588.91;;;-5.64;96.14
35443;BME280;21561;55.654;37.592;2023-03-11T08:18:11;98577.41;;;-5.58;95.68
35443;BME280;21561;55.654;37.592;2023-03-11T08:20:38;98576.28;;;-5.43;95.56
35443;BME280;21561;55.654;37.592;2023-03-11T08:23:05;98573.03;;;-5.39;95.22
35443;BME280;21561;55.654;37.592;2023-03-11T08:25:32;98569.47;;;-5.44;94.22
35443;BME280;21561;55.654;37.592;2023-03-11T08:27:59;98572.44;;;-5.54;94.21
35443;BME280;21561;55.654;37.592;2023-03-11T08:30:26;98556.69;;;-5.49;95.37
35443;BME280;21561;55.654;37.592;2023-03-11T08:32:52;98561.19;;;-5.40;94.14
35443;BME280;21561;55.654;37.592;2023-03-11T08:35:19;98549.72;;;-5.32;93.91
35443;BME280;21561;55.654;37.592;2023-03-11T08:37:47;98553.03;;;-5.33;92.39
35443;BME280;21561;55.654;37.592;2023-03-11T08:40:13;98552.81;;;-5.39;92.37
35443;BME280;21561;55.654;37.592;2023-03-11T08:42:40;98552.69;;;-5.42;92.46
35443;BME280;21561;55.654;37.592;2023-03-11T08:45:08;98551.34;;;-5.34;92.82
35443;BME280;21561;55.654;37.592;2023-03-11T08:47:36;98555.81;;;-5.27;92.64
35443;BME280;21561;55.654;37.592;2023-03-11T08:50:06;98557.00;;;-5.19;92.32
35443;BME280;21561;55.654;37.592;2023-03-11T08:52:35;98560.38;;;-5.18;91.67
35443;BME280;21561;55.654;37.592;2023-03-11T08:55:02;98561.91;;;-5.22;91.82
35443;BME280;21561;55.654;37.592;2023-03-11T08:57:31;98563.28;;;-5.30;92.21
35443;BME280;21561;55.654;37.592;2023-03-11T08:59:58;98562.09;;;-5.40;93.58
35443;BME280;21561;55.654;37.592;2023-03-11T09:02:25;98564.19;;;-5.50;95.03
35443;BME280;21561;55.654;37.592;2023-03-11T09:04:52;98548.78;;;-5.57;95.69
35443;BME280;21561;55.654;37.592;2023-03-11T09:07:19;98543.72;;;-5.57;96.42
35443;BME280;21561;55.654;37.592;2023-03-11T09:09:46;98547.06;;;-5.58;96.76
35443;BME280;21561;55.654;37.592;2023-03-11T09:12:13;98533.38;;;-5.63;97.11
35443;BME280;21561;55.654;37.592;2023-03-11T09:14:41;98525.88;;;-5.61;96.78
35443;BME280;21561;55.654;37.592;2023-03-11T09:17:09;98526.94;;;-5.54;96.88
35443;BME280;21561;55.654;37.592;2023-03-11T09:19:37;98524.47;;;-5.53;96.52
35443;BME280;21561;55.654;37.592;2023-03-11T09:22:05;98519.75;;;-5.44;96.31
35443;BME280;21561;55.654;37.592;2023-03-11T09:24:33;98515.03;;;-5.36;96.03
35443;BME280;21561;55.654;37.592;2023-03-11T09:27:01;98514.97;;;-5.38;96.13
35443;BME280;21561;55.654;37.592;2023-03-11T09:29:28;98519.16;;;-5.38;95.95
35443;BME280;21561;55.654;37.592;2023-03-11T09:31:55;98523.25;;;-5.42;95.66
35443;BME280;21561;55.654;37.592;2023-03-11T09:34:22;98525.44;;;-5.49;95.54
35443;BME280;21561;55.654;37.592;2023-03-11T09:36:49;98515.25;;;-5.52;96.25
35443;BME280;21561;55.654;37.592;2023-03-11T09:39:16;98521.88;;;-5.54;96.26
35443;BME280;21561;55.654;37.592;2023-03-11T09:41:57;98516.31;;;-5.46;95.90
35443;BME280;21561;55.654;37.592;2023-03-11T09:52:10;98503.75;;;-5.44;95.54
35443;BME280;21561;55.654;37.592;2023-03-11T09:54:41;98502.13;;;-5.42;95.17
35443;BME280;21561;55.654;37.592;2023-03-11T09:57:13;98492.13;;;-5.39;95.30
35443;BME280;21561;55.654;37.592;2023-03-11T09:59:43;98483.84;;;-5.35;94.96
35443;BME280;21561;55.654;37.592;2023-03-11T10:02:18;98471.47;;;-5.29;95.05
35443;BME280;21561;55.654;37.592;2023-03-11T10:07:39;98454.28;;;-5.13;94.45
35443;BME280;21561;55.654;37.592;2023-03-11T10:10:11;98455.31;;;-5.08;93.87
35443;BME280;21561;55.654;37.592;2023-03-11T10:21:00;98430.28;;;-5.25;93.08
35443;BME280;21561;55.654;37.592;2023-03-11T10:23:53;98429.38;;;-5.27;93.06
35443;BME280;21561;55.654;37.592;2023-03-11T10:26:31;98416.84;;;-5.24;93.56
35443;BME280;21561;55.654;37.592;2023-03-11T10:29:13;98412.06;;;-5.16;93.73
35443;BME280;21561;55.654;37.592;2023-03-11T10:31:47;98405.50;;;-5.11;93.92
35443;BME280;21561;55.654;37.592;2023-03-11T10:34:27;98409.19;;;-5.01;93.48
35443;BME280;21561;55.654;37.592;2023-03-11T10:37:02;98405.97;;;-4.97;93.40
35443;BME280;21561;55.654;37.592;2023-03-11T10:39:32;98400.91;;;-4.97;93.29
35443;BME280;21561;55.654;37.592;2023-03-11T10:42:02;98401.00;;;-4.94;92.79
35443;BME280;21561;55.654;37.592;2023-03-11T10:44:37;98389.19;;;-4.95;92.39
35443;BME280;21561;55.654;37.592;2023-03-11T10:47:05;98388.94;;;-5.01;92.46
35443;BME280;21561;55.654;37.592;2023-03-11T10:49:32;98379.78;;;-4.97;92.54
35443;BME280;21561;55.654;37.592;2023-03-11T10:52:02;98374.06;;;-4.93;92.21
35443;BME280;21561;55.654;37.592;2023-03-11T10:54:41;98377.53;;;-4.90;92.27
35443;BME280;21561;55.654;37.592;2023-03-11T10:57:26;98371.72;;;-4.87;92.54
35443;BME280;21561;55.654;37.592;2023-03-11T10:59:56;98370.81;;;-4.89;92.25
35443;BME280;21561;55.654;37.592;2023-03-11T11:02:36;98358.22;;;-4.88;92.28
35443;BME280;21561;55.654;37.592;2023-03-11T11:07:45;98350.56;;;-4.89;92.53
35443;BME280;21561;55.654;37.592;2023-03-11T11:10:23;98344.00;;;-4.84;92.72
35443;BME280;21561;55.654;37.592;2023-03-11T11:12:59;98347.25;;;-4.87;92.80
35443;BME280;21561;55.654;37.592;2023-03-11T11:18:30;98327.03;;;-4.87;92.84
35443;BME280;21561;55.654;37.592;2023-03-11T11:22:02;98325.31;;;-4.88;93.46
35443;BME280;21561;55.654;37.592;2023-03-11T11:29:41;98322.72;;;-4.89;93.94
35443;BME280;21561;55.654;37.592;2023-03-11T11:34:59;98311.84;;;-4.87;94.48
35443;BME280;21561;55.654;37.592;2023-03-11T11:37:29;98311.75;;;-4.90;94.19
35443;BME280;21561;55.654;37.592;2023-03-11T11:40:04;98306.69;;;-4.90;94.39
35443;BME280;21561;55.654;37.592;2023-03-11T11:42:40;98297.44;;;-4.89;94.66
35443;BME280;21561;55.654;37.592;2023-03-11T11:45:13;98296.59;;;-4.90;94.58
35443;BME280;21561;55.654;37.592;2023-03-11T11:47:46;98303.34;;;-4.89;94.39
35443;BME280;21561;55.654;37.592;2023-03-11T11:50:25;98293.94;;;-4.93;94.60
35443;BME280;21561;55.654;37.592;2023-03-11T11:55:55;98304.78;;;-4.97;94.81
35443;BME280;21561;55.654;37.592;2023-03-11T11:58:22;98308.22;;;-4.95;95.02
35443;BME280;21561;55.654;37.592;2023-03-11T12:01:02;98303.34;;;-4.89;94.96
35443;BME280;21561;55.654;37.592;2023-03-11T12:03:38;98301.72;;;-4.87;95.05
35443;BME280;21561;55.654;37.592;2023-03-11T12:14:29;98287.84;;;-4.72;94.85
35443;BME280;21561;55.654;37.592;2023-03-11T12:17:03;98268.47;;;-4.70;94.82
35443;BME280;21561;55.654;37.592;2023-03-11T12:19:42;98273.75;;;-4.64;94.47
35443;BME280;21561;55.654;37.592;2023-03-11T12:22:23;98270.50;;;-4.60;94.71
35443;BME280;21561;55.654;37.592;2023-03-11T12:24:56;98271.34;;;-4.60;94.60
35443;BME280;21561;55.654;37.592;2023-03-11T12:30:19;98261.38;;;-4.55;94.35
35443;BME280;21561;55.654;37.592;2023-03-11T12:32:52;98259.69;;;-4.54;94.49
35443;BME280;21561;55.654;37.592;2023-03-11T12:35:30;98250.53;;;-4.51;94.15
35443;BME280;21561;55.654;37.592;2023-03-11T12:38:19;98255.78;;;-4.45;93.81
35443;BME280;21561;55.654;37.592;2023-03-11T12:40:56;98263.22;;;-4.49;93.86
35443;BME280;21561;55.654;37.592;2023-03-11T12:46:09;98248.13;;;-4.46;94.00
35443;BME280;21561;55.654;37.592;2023-03-11T12:54:32;98249.19;;;-4.39;93.77
35443;BME280;21561;55.654;37.592;2023-03-11T13:00:48;98250.72;;;-4.45;93.91
35443;BME280;21561;55.654;37.592;2023-03-11T13:08:12;98229.78;;;-4.39;94.00
35443;BME280;21561;55.654;37.592;2023-03-11T13:10:42;98230.63;;;-4.38;93.77
35443;BME280;21561;55.654;37.592;2023-03-11T13:13:39;98227.47;;;-4.31;93.85
35443;BME280;21561;55.654;37.592;2023-03-11T13:18:43;98208.69;;;-4.39;93.98
35443;BME280;21561;55.654;37.592;2023-03-11T13:35:22;98172.44;;;-4.37;94.89
35443;BME280;21561;55.654;37.592;2023-03-11T13:38:30;98165.03;;;-4.29;94.73
35443;BME280;21561;55.654;37.592;2023-03-11T13:41:02;98170.03;;;-4.32;95.05
35443;BME280;21561;55.654;37.592;2023-03-11T13:43:29;98159.91;;;-4.32;95.19
35443;BME280;21561;55.654;37.592;2023-03-11T13:46:00;98159.97;;;-4.29;95.18
35443;BME280;21561;55.654;37.592;2023-03-11T13:48:32;98150.84;;;-4.24;95.44
35443;BME280;21561;55.654;37.592;2023-03-11T13:51:06;98136.53;;;-4.22;95.62
35443;BME280;21561;55.654;37.592;2023-03-11T13:53:45;98142.53;;;-4.18;95.25
35443;BME280;21561;55.654;37.592;2023-03-11T13:56:17;98149.25;;;-4.20;95.87
35443;BME280;21561;55.654;37.592;2023-03-11T13:58:47;98144.06;;;-4.25;96.07
35443;BME280;21561;55.654;37.592;2023-03-11T14:01:16;98142.38;;;-4.25;96.37
35443;BME280;21561;55.654;37.592;2023-03-11T14:03:45;98139.91;;;-4.23;96.56
35443;BME280;21561;55.654;37.592;2023-03-11T14:06:14;98139.13;;;-4.20;97.09
35443;BME280;21561;55.654;37.592;2023-03-11T14:08:56;98140.06;;;-4.17;97.00
35443;BME280;21561;55.654;37.592;2023-03-11T14:11:27;98147.69;;;-4.15;97.25
35443;BME280;21561;55.654;37.592;2023-03-11T14:13:57;98137.53;;;-4.17;97.61
35443;BME280;21561;55.654;37.592;2023-03-11T14:16:28;98146.91;;;-4.13;97.43
35443;BME280;21561;55.654;37.592;2023-03-11T14:19:13;98132.66;;;-4.09;97.50
35443;BME280;21561;55.654;37.592;2023-03-11T14:21:41;98131.81;;;-4.10;97.68
35443;BME280;21561;55.654;37.592;2023-03-11T14:24:16;98118.44;;;-4.04;98.00
35443;BME280;21561;55.654;37.592;2023-03-11T14:26:44;98116.84;;;-4.00;98.04
35443;BME280;21561;55.654;37.592;2023-03-11T14:29:15;98111.06;;;-3.96;97.83
35443;BME280;21561;55.654;37.592;2023-03-11T14:31:43;98100.91;;;-3.96;97.92